createdAt,value
2018-08-10T00:00:09.330Z,99.90
2018-08-10T00:02:38.332Z,99.90
2018-08-10T00:05:08.058Z,99.90
2018-08-10T00:07:37.018Z,99.90
2018-08-10T00:10:07.499Z,99.90
2018-08-10T00:12:36.165Z,99.90
2018-08-10T00:15:06.429Z,99.90
2018-08-10T00:17:35.905Z,99.90
2018-08-10T00:20:06.295Z,99.90
2018-08-10T00:22:34.884Z,99.90
2018-08-10T00:25:03.494Z,99.90
2018-08-10T00:27:32.088Z,99.90
2018-08-10T00:30:00.636Z,99.90
2018-08-10T00:32:29.202Z,99.90
2018-08-10T00:34:57.858Z,99.90
2018-08-10T00:37:26.382Z,99.90
2018-08-10T00:39:54.854Z,99.90
2018-08-10T00:42:23.840Z,99.90
2018-08-10T00:44:52.402Z,99.90
2018-08-10T00:47:21.135Z,99.90
2018-08-10T00:49:49.769Z,99.90
2018-08-10T00:52:18.289Z,99.90
2018-08-10T00:54:46.978Z,99.90
2018-08-10T00:57:15.469Z,99.90
2018-08-10T00:59:44.025Z,99.90
2018-08-10T01:02:12.571Z,99.90
2018-08-10T01:04:41.154Z,99.90
2018-08-10T01:07:09.849Z,99.90
2018-08-10T01:09:38.370Z,99.90
2018-08-10T01:12:06.979Z,99.90
2018-08-10T01:14:35.555Z,99.90
2018-08-10T01:17:04.154Z,99.90
2018-08-10T01:19:32.897Z,99.90
2018-08-10T01:22:01.566Z,99.90
2018-08-10T01:24:30.130Z,99.90
2018-08-10T01:26:59.068Z,99.90
2018-08-10T01:29:27.716Z,99.90
2018-08-10T01:31:56.443Z,99.90
2018-08-10T01:34:24.978Z,99.90
2018-08-10T01:36:53.726Z,99.90
2018-08-10T01:39:22.266Z,99.90
2018-08-10T01:41:50.847Z,99.90
2018-08-10T01:44:19.379Z,99.90
2018-08-10T01:46:47.998Z,99.90
2018-08-10T01:49:16.519Z,99.90
2018-08-10T01:51:45.267Z,99.90
2018-08-10T01:54:14.054Z,99.90
2018-08-10T01:56:42.896Z,99.90
2018-08-10T01:59:11.788Z,99.90
2018-08-10T02:01:40.668Z,99.90
2018-08-10T02:04:09.172Z,99.90
2018-08-10T02:06:37.878Z,99.90
2018-08-10T02:09:08.431Z,99.90
2018-08-10T02:11:37.285Z,99.90
2018-08-10T02:14:06.484Z,99.90
2018-08-10T02:16:35.405Z,99.90
2018-08-10T02:19:03.958Z,99.90
2018-08-10T02:21:32.498Z,99.90
2018-08-10T02:24:01.150Z,99.90
2018-08-10T02:26:29.659Z,99.90
2018-08-10T02:28:58.398Z,99.90
2018-08-10T02:31:27.068Z,99.90
2018-08-10T02:33:55.870Z,99.90
2018-08-10T02:36:24.642Z,99.90
2018-08-10T02:38:53.418Z,99.90
2018-08-10T02:41:22.767Z,99.90
2018-08-10T02:43:52.204Z,99.90
2018-08-10T02:46:21.233Z,99.90
2018-08-10T02:48:49.809Z,99.90
2018-08-10T02:51:18.576Z,99.90
2018-08-10T02:53:47.144Z,99.90
2018-08-10T02:56:16.221Z,99.90
2018-08-10T02:58:45.038Z,99.90
2018-08-10T03:01:13.825Z,99.90
2018-08-10T03:03:42.692Z,99.90
2018-08-10T03:06:11.201Z,99.90
2018-08-10T03:08:39.749Z,99.90
2018-08-10T03:11:08.366Z,99.90
2018-08-10T03:13:36.921Z,99.90
2018-08-10T03:16:06.033Z,99.90
2018-08-10T03:18:34.620Z,99.90
2018-08-10T03:21:03.300Z,99.90
2018-08-10T03:23:32.120Z,99.90
2018-08-10T03:26:00.789Z,99.90
2018-08-10T03:28:29.363Z,99.90
2018-08-10T03:30:58.487Z,99.90
2018-08-10T03:33:27.188Z,99.90
2018-08-10T03:35:55.921Z,99.90
2018-08-10T03:38:24.569Z,99.90
2018-08-10T03:40:53.093Z,99.90
2018-08-10T03:43:21.829Z,99.90
2018-08-10T03:45:50.369Z,99.90
2018-08-10T03:48:18.909Z,99.90
2018-08-10T03:50:47.455Z,99.90
2018-08-10T03:53:16.153Z,99.90
2018-08-10T03:55:44.701Z,99.90
2018-08-10T03:58:13.374Z,99.90
2018-08-10T04:00:41.907Z,99.90
2018-08-10T04:03:10.484Z,99.90
2018-08-10T04:05:39.014Z,99.90
2018-08-10T04:08:07.574Z,99.90
2018-08-10T04:10:36.163Z,99.90
2018-08-10T04:13:04.785Z,99.90
2018-08-10T04:15:33.572Z,99.90
2018-08-10T04:18:02.167Z,99.90
2018-08-10T04:20:30.772Z,99.90
2018-08-10T04:22:59.530Z,99.90
2018-08-10T04:25:28.124Z,99.90
2018-08-10T04:27:56.657Z,99.90
2018-08-10T04:30:25.308Z,99.90
2018-08-10T04:32:53.892Z,99.90
2018-08-10T04:35:22.724Z,99.90
2018-08-10T04:37:51.644Z,99.90
2018-08-10T04:40:20.223Z,99.90
2018-08-10T04:42:48.785Z,99.90
2018-08-10T04:45:17.405Z,99.90
2018-08-10T04:47:48.262Z,99.90
2018-08-10T04:50:17.931Z,99.90
2018-08-10T04:52:46.638Z,99.90
2018-08-10T04:55:15.174Z,99.90
2018-08-10T04:57:43.785Z,99.90
2018-08-10T05:00:13.994Z,99.90
2018-08-10T05:02:42.842Z,99.90
2018-08-10T05:05:11.716Z,99.90
2018-08-10T05:07:41.435Z,99.90
2018-08-10T05:10:10.450Z,99.90
2018-08-10T05:12:39.791Z,99.90
2018-08-10T05:15:09.483Z,99.90
2018-08-10T05:17:38.630Z,99.90
2018-08-10T05:20:08.630Z,99.90
2018-08-10T05:22:37.601Z,99.90
2018-08-10T05:25:06.531Z,99.90
2018-08-10T05:27:35.596Z,99.90
2018-08-10T05:30:05.238Z,99.90
2018-08-10T05:32:34.085Z,99.90
2018-08-10T05:35:02.616Z,99.90
2018-08-10T05:37:31.306Z,99.90
2018-08-10T05:39:59.828Z,99.90
2018-08-10T05:42:28.662Z,99.90
2018-08-10T05:44:57.217Z,99.90
2018-08-10T05:47:26.274Z,99.90
2018-08-10T05:49:54.882Z,99.90
2018-08-10T05:52:23.515Z,99.90
2018-08-10T05:54:52.222Z,99.90
2018-08-10T05:57:21.082Z,99.90
2018-08-10T05:59:49.663Z,99.90
2018-08-10T06:02:18.483Z,99.90
2018-08-10T06:04:47.024Z,99.90
2018-08-10T06:07:15.815Z,99.90
2018-08-10T06:09:44.365Z,99.90
2018-08-10T06:12:12.989Z,99.90
2018-08-10T06:14:41.876Z,99.90
2018-08-10T06:17:10.668Z,99.90
2018-08-10T06:19:39.411Z,99.90
2018-08-10T06:22:07.910Z,99.90
2018-08-10T06:24:36.470Z,99.90
2018-08-10T06:27:05.169Z,99.90
2018-08-10T06:29:33.898Z,99.90
2018-08-10T06:32:02.480Z,99.90
2018-08-10T06:34:31.003Z,99.90
2018-08-10T06:36:59.891Z,99.90
2018-08-10T06:39:28.434Z,99.90
2018-08-10T06:41:57.022Z,99.90
2018-08-10T06:44:25.811Z,99.90
2018-08-10T06:46:54.463Z,99.90
2018-08-10T06:49:23.187Z,99.90
2018-08-10T06:51:52.073Z,99.90
2018-08-10T06:54:20.573Z,99.90
2018-08-10T06:56:49.811Z,99.90
2018-08-10T06:59:18.530Z,99.90
2018-08-10T07:01:47.356Z,99.90
2018-08-10T07:04:16.176Z,99.90
2018-08-10T07:06:45.129Z,99.90
2018-08-10T07:09:14.262Z,99.90
2018-08-10T07:11:43.268Z,99.90
2018-08-10T07:14:11.904Z,99.90
2018-08-10T07:16:40.543Z,99.90
2018-08-10T07:19:09.355Z,99.90
2018-08-10T07:21:38.099Z,99.90
2018-08-10T07:24:07.338Z,99.90
2018-08-10T07:26:35.856Z,99.90
2018-08-10T07:29:04.711Z,99.90
2018-08-10T07:31:33.397Z,99.90
2018-08-10T07:34:02.276Z,99.90
2018-08-10T07:36:31.029Z,99.90
2018-08-10T07:38:59.793Z,99.90
2018-08-10T07:41:28.469Z,99.90
2018-08-10T07:43:57.344Z,99.90
2018-08-10T07:46:26.299Z,99.90
2018-08-10T07:48:55.234Z,99.90
2018-08-10T07:51:24.172Z,99.90
2018-08-10T07:53:53.075Z,99.90
2018-08-10T07:56:22.500Z,99.90
2018-08-10T07:58:51.341Z,99.90
2018-08-10T08:01:20.356Z,99.90
2018-08-10T08:03:49.238Z,99.90
2018-08-10T08:06:17.970Z,99.60
2018-08-10T08:08:46.653Z,99.50
2018-08-10T08:11:15.459Z,98.40
2018-08-10T08:13:44.127Z,98.00
2018-08-10T08:16:12.808Z,99.00
2018-08-10T08:18:41.398Z,99.20
2018-08-10T08:21:11.673Z,98.20
2018-08-10T08:23:40.467Z,98.30
2018-08-10T08:26:09.457Z,98.20
2018-08-10T08:28:38.584Z,98.20
2018-08-10T08:31:07.558Z,97.80
2018-08-10T08:33:47.412Z,97.70
2018-08-10T08:36:16.011Z,97.50
2018-08-10T08:40:25.508Z,97.80
2018-08-10T08:42:54.557Z,97.70
2018-08-10T08:46:27.478Z,97.10
2018-08-10T08:48:55.969Z,97.10
2018-08-10T08:51:26.243Z,96.20
2018-08-10T08:56:12.738Z,96.10
2018-08-10T08:58:42.379Z,95.20
2018-08-10T09:01:11.494Z,94.80
2018-08-10T09:04:20.304Z,95.00
2018-08-10T09:06:49.257Z,95.20
2018-08-10T09:09:29.138Z,95.10
2018-08-10T09:11:57.751Z,94.50
2018-08-10T09:14:43.382Z,93.40
2018-08-10T09:17:12.821Z,94.10
2018-08-10T09:19:42.198Z,94.20
2018-08-10T09:22:11.511Z,94.40
2018-08-10T09:24:40.652Z,91.50
2018-08-10T09:27:09.590Z,91.60
2018-08-10T09:29:38.395Z,91.70
2018-08-10T09:32:07.017Z,92.50
2018-08-10T09:34:35.747Z,92.40
2018-08-10T09:37:04.772Z,92.60
2018-08-10T09:39:33.531Z,91.50
2018-08-10T09:42:03.596Z,91.30
2018-08-10T09:44:33.137Z,92.00
2018-08-10T09:47:02.583Z,90.40
2018-08-10T09:49:35.466Z,90.30
2018-08-10T09:52:04.537Z,87.90
2018-08-10T09:54:33.705Z,87.00
2018-08-10T09:57:04.314Z,84.30
2018-08-10T09:59:33.038Z,82.40
2018-08-10T10:02:06.927Z,81.60
2018-08-10T10:04:35.476Z,81.20
2018-08-10T10:07:04.269Z,78.00
2018-08-10T10:09:32.848Z,77.20
2018-08-10T10:12:01.534Z,75.60
2018-08-10T10:14:30.204Z,76.30
2018-08-10T10:16:59.167Z,72.40
2018-08-10T10:19:27.915Z,70.30
2018-08-10T10:21:56.865Z,68.60
2018-08-10T10:24:25.770Z,66.70
2018-08-10T10:26:54.528Z,65.90
2018-08-10T10:29:23.497Z,67.40
2018-08-10T10:31:52.149Z,62.70
2018-08-10T10:34:53.227Z,61.30
2018-08-10T10:37:22.675Z,60.60
2018-08-10T10:39:51.797Z,61.10
2018-08-10T10:42:21.401Z,56.90
2018-08-10T10:44:50.416Z,55.50
2018-08-10T10:47:19.388Z,55.70
2018-08-10T10:49:48.580Z,58.70
2018-08-10T10:52:18.002Z,61.00
2018-08-10T10:54:47.142Z,62.20
2018-08-10T10:57:16.164Z,60.10
2018-08-10T10:59:44.959Z,57.50
2018-08-10T11:02:13.573Z,57.70
2018-08-10T11:04:42.289Z,55.40
2018-08-10T11:07:11.198Z,55.90
2018-08-10T11:09:40.298Z,55.40
2018-08-10T11:12:09.521Z,53.90
2018-08-10T11:14:38.331Z,53.00
2018-08-10T11:17:07.125Z,50.80
2018-08-10T11:19:35.992Z,50.90
2018-08-10T11:22:04.631Z,50.70
2018-08-10T11:24:33.408Z,48.60
2018-08-10T11:27:02.185Z,47.40
2018-08-10T11:29:30.782Z,48.00
2018-08-10T11:31:59.378Z,48.60
2018-08-10T11:34:28.068Z,46.70
2018-08-10T11:36:56.738Z,46.50
2018-08-10T11:39:25.378Z,43.90
2018-08-10T11:41:54.095Z,45.10
2018-08-10T11:44:22.731Z,43.10
2018-08-10T11:46:51.492Z,42.10
2018-08-10T11:49:20.295Z,41.50
2018-08-10T11:51:49.147Z,42.30
2018-08-10T11:54:17.873Z,41.90
2018-08-10T11:56:46.456Z,41.10
2018-08-10T11:59:15.043Z,40.60
2018-08-10T12:01:44.055Z,41.40
2018-08-10T12:04:12.610Z,39.70
2018-08-10T12:06:41.122Z,39.40
2018-08-10T12:09:11.353Z,37.90
2018-08-10T12:11:40.678Z,38.20
2018-08-10T12:14:09.729Z,37.80
2018-08-10T12:16:38.296Z,40.40
2018-08-10T12:19:07.024Z,40.60
2018-08-10T12:21:35.724Z,41.40
2018-08-10T12:24:04.528Z,40.70
2018-08-10T12:26:33.095Z,40.50
2018-08-10T12:29:01.670Z,37.20
2018-08-10T12:31:30.371Z,36.40
2018-08-10T12:33:59.278Z,34.50
2018-08-10T12:36:28.114Z,35.60
2018-08-10T12:38:57.038Z,34.60
2018-08-10T12:41:25.969Z,33.70
2018-08-10T12:43:55.055Z,31.60
2018-08-10T12:46:23.634Z,33.00
2018-08-10T12:48:52.937Z,33.20
2018-08-10T12:51:21.706Z,36.30
2018-08-10T12:53:50.523Z,36.10
2018-08-10T12:56:19.543Z,37.10
2018-08-10T12:58:48.393Z,37.60
2018-08-10T13:01:17.274Z,37.20
2018-08-10T13:03:45.920Z,34.70
2018-08-10T13:06:14.571Z,33.70
2018-08-10T13:08:43.249Z,31.80
2018-08-10T13:11:12.002Z,32.30
2018-08-10T13:13:41.161Z,32.70
2018-08-10T13:16:09.920Z,32.80
2018-08-10T13:18:38.708Z,33.70
2018-08-10T13:21:07.354Z,29.90
2018-08-10T13:23:36.058Z,29.50
2018-08-10T13:26:04.802Z,29.80
2018-08-10T13:28:33.438Z,31.10
2018-08-10T13:31:02.218Z,31.30
2018-08-10T13:33:31.476Z,31.80
2018-08-10T13:36:00.455Z,30.10
2018-08-10T13:38:29.034Z,29.40
2018-08-10T13:40:58.048Z,30.80
2018-08-10T13:43:26.996Z,30.80
2018-08-10T13:45:55.633Z,30.40
2018-08-10T13:48:24.330Z,29.70
2018-08-10T13:50:52.958Z,28.80
2018-08-10T13:53:21.873Z,28.70
2018-08-10T13:55:50.493Z,30.00
2018-08-10T13:58:19.440Z,30.10
2018-08-10T14:00:48.371Z,28.80
2018-08-10T14:03:17.246Z,28.90
2018-08-10T14:05:46.139Z,28.30
2018-08-10T14:08:15.289Z,28.60
2018-08-10T14:10:44.283Z,28.10
2018-08-10T14:13:13.290Z,28.00
2018-08-10T14:15:41.960Z,27.70
2018-08-10T14:18:10.844Z,29.20
2018-08-10T14:20:39.658Z,30.40
2018-08-10T14:23:08.526Z,30.20
2018-08-10T14:25:37.100Z,29.60
2018-08-10T14:28:05.890Z,28.30
2018-08-10T14:30:34.779Z,27.80
2018-08-10T14:33:03.386Z,27.30
2018-08-10T14:35:32.089Z,27.80
2018-08-10T14:38:00.700Z,30.00
2018-08-10T14:40:29.686Z,29.80
2018-08-10T14:42:58.630Z,31.50
2018-08-10T14:45:27.318Z,31.10
2018-08-10T14:47:56.076Z,30.60
2018-08-10T14:50:25.111Z,31.40
2018-08-10T14:52:53.967Z,33.30
2018-08-10T14:55:22.817Z,33.00
2018-08-10T14:57:51.433Z,32.10
2018-08-10T15:00:21.250Z,32.80
2018-08-10T15:02:50.368Z,34.10
2018-08-10T15:05:19.332Z,35.70
2018-08-10T15:07:48.199Z,35.70
2018-08-10T15:10:17.603Z,37.30
2018-08-10T15:12:47.551Z,37.20
2018-08-10T15:15:17.273Z,38.50
2018-08-10T15:17:46.500Z,38.40
2018-08-10T15:20:17.676Z,36.80
2018-08-10T15:22:46.837Z,37.20
2018-08-10T15:25:15.783Z,36.00
2018-08-10T15:27:44.869Z,37.00
2018-08-10T15:30:17.747Z,36.90
2018-08-10T15:32:46.441Z,38.40
2018-08-10T15:35:16.739Z,38.70
2018-08-10T15:37:46.172Z,39.10
2018-08-10T15:40:16.827Z,40.40
2018-08-10T15:42:45.921Z,40.90
2018-08-10T15:45:15.789Z,41.90
2018-08-10T15:47:45.209Z,42.20
2018-08-10T15:50:14.613Z,42.00
2018-08-10T15:52:44.580Z,39.50
2018-08-10T15:55:13.925Z,38.10
2018-08-10T15:57:43.031Z,38.70
2018-08-10T16:00:14.997Z,39.60
2018-08-10T16:02:43.746Z,39.90
2018-08-10T16:05:12.470Z,40.80
2018-08-10T16:07:42.810Z,41.10
2018-08-10T16:10:11.856Z,41.70
2018-08-10T16:12:40.844Z,41.70
2018-08-10T16:15:16.663Z,41.10
2018-08-10T16:17:45.553Z,41.70
2018-08-10T16:20:20.297Z,41.40
2018-08-10T16:22:49.701Z,41.90
2018-08-10T16:25:18.570Z,41.80
2018-08-10T16:27:47.335Z,42.70
2018-08-10T16:30:16.965Z,42.50
2018-08-10T16:32:46.226Z,42.00
2018-08-10T16:35:15.739Z,41.40
2018-08-10T16:37:45.918Z,41.20
2018-08-10T16:40:16.147Z,40.50
2018-08-10T16:42:45.199Z,40.00
2018-08-10T16:45:14.612Z,40.00
2018-08-10T16:47:43.803Z,38.80
2018-08-10T16:50:17.514Z,39.00
2018-08-10T16:52:46.639Z,39.80
2018-08-10T16:55:16.696Z,40.80
2018-08-10T16:57:46.317Z,40.30
2018-08-10T17:00:16.802Z,40.70
2018-08-10T17:02:46.050Z,41.00
2018-08-10T17:05:14.768Z,41.80
2018-08-10T17:07:43.906Z,42.40
2018-08-10T17:10:12.949Z,42.70
2018-08-10T17:12:42.810Z,43.60
2018-08-10T17:15:13.278Z,43.00
2018-08-10T17:17:42.953Z,44.00
2018-08-10T17:20:12.259Z,44.20
2018-08-10T17:22:41.716Z,44.40
2018-08-10T17:25:11.917Z,44.30
2018-08-10T17:27:40.804Z,43.80
2018-08-10T17:30:11.946Z,45.20
2018-08-10T17:32:40.739Z,45.30
2018-08-10T17:35:11.159Z,46.00
2018-08-10T17:37:40.154Z,48.00
2018-08-10T17:40:09.451Z,47.40
2018-08-10T17:42:38.555Z,48.20
2018-08-10T17:45:09.821Z,48.50
2018-08-10T17:47:38.770Z,49.00
2018-08-10T17:50:12.511Z,49.20
2018-08-10T17:52:44.040Z,48.50
2018-08-10T17:55:13.550Z,49.60
2018-08-10T17:57:42.160Z,49.90
2018-08-10T18:00:13.445Z,50.90
2018-08-10T18:02:42.403Z,51.20
2018-08-10T18:05:13.044Z,51.40
2018-08-10T18:07:42.682Z,50.80
2018-08-10T18:10:12.386Z,51.10
2018-08-10T18:12:41.748Z,51.20
2018-08-10T18:15:13.190Z,51.20
2018-08-10T18:17:42.398Z,50.80
2018-08-10T18:20:13.784Z,51.00
2018-08-10T18:22:43.262Z,51.60
2018-08-10T18:25:13.349Z,51.60
2018-08-10T18:27:42.864Z,51.90
2018-08-10T18:30:17.555Z,51.80
2018-08-10T18:32:46.584Z,52.90
2018-08-10T18:35:15.555Z,53.60
2018-08-10T18:37:44.778Z,54.80
2018-08-10T18:40:14.725Z,54.50
2018-08-10T18:42:44.731Z,54.50
2018-08-10T18:45:15.082Z,55.00
2018-08-10T18:47:43.846Z,55.20
2018-08-10T18:50:13.751Z,56.90
2018-08-10T18:52:42.803Z,56.70
2018-08-10T18:55:14.483Z,56.80
2018-08-10T18:57:43.256Z,57.00
2018-08-10T19:00:14.195Z,57.90
2018-08-10T19:02:43.210Z,57.60
2018-08-10T19:05:13.678Z,58.80
2018-08-10T19:07:43.571Z,60.00
2018-08-10T19:10:14.427Z,59.30
2018-08-10T19:12:43.354Z,67.10
2018-08-10T19:15:13.089Z,70.60
2018-08-10T19:17:41.744Z,75.10
2018-08-10T19:20:11.488Z,78.20
2018-08-10T19:22:40.109Z,80.70
2018-08-10T19:25:10.771Z,82.50
2018-08-10T19:27:39.696Z,87.10
2018-08-10T19:30:10.930Z,90.80
2018-08-10T19:32:40.027Z,92.50
2018-08-10T19:35:09.136Z,94.00
2018-08-10T19:37:38.627Z,93.50
2018-08-10T19:40:09.697Z,93.50
2018-08-10T19:42:38.405Z,94.00
2018-08-10T19:45:08.266Z,94.40
2018-08-10T19:47:37.270Z,95.20
2018-08-10T19:50:06.960Z,95.00
2018-08-10T19:52:35.920Z,95.50
2018-08-10T19:55:05.762Z,96.00
2018-08-10T19:57:34.889Z,96.70
2018-08-10T20:00:03.657Z,97.50
2018-08-10T20:02:32.547Z,97.10
2018-08-10T20:05:01.295Z,97.80
2018-08-10T20:07:29.905Z,98.80
2018-08-10T20:09:58.873Z,99.00
2018-08-10T20:12:27.626Z,99.70
2018-08-10T20:14:56.440Z,99.90
2018-08-10T20:17:25.052Z,99.90
2018-08-10T20:19:54.004Z,99.90
2018-08-10T20:22:22.712Z,99.90
2018-08-10T20:24:51.737Z,99.90
2018-08-10T20:27:20.393Z,99.90
2018-08-10T20:29:49.517Z,99.90
2018-08-10T20:32:18.494Z,99.90
2018-08-10T20:34:47.388Z,99.90
2018-08-10T20:37:16.157Z,99.90
2018-08-10T20:39:44.919Z,99.90
2018-08-10T20:42:13.561Z,99.90
2018-08-10T20:44:42.265Z,99.90
2018-08-10T20:47:11.074Z,99.90
2018-08-10T20:49:39.855Z,99.90
2018-08-10T20:52:09.558Z,99.90
2018-08-10T20:54:38.628Z,99.90
2018-08-10T20:57:07.764Z,99.90
2018-08-10T20:59:36.602Z,99.90
2018-08-10T21:02:05.162Z,99.90
2018-08-10T21:04:34.206Z,99.90
2018-08-10T21:07:03.068Z,99.90
2018-08-10T21:09:31.665Z,99.90
2018-08-10T21:12:00.231Z,99.90
2018-08-10T21:14:28.986Z,99.90
2018-08-10T21:16:57.612Z,99.90
2018-08-10T21:19:26.341Z,99.90
2018-08-10T21:21:55.013Z,99.90
2018-08-10T21:24:23.935Z,99.90
2018-08-10T21:26:52.530Z,99.90
2018-08-10T21:29:21.207Z,99.90
2018-08-10T21:31:49.772Z,99.90
2018-08-10T21:34:18.582Z,99.90
2018-08-10T21:36:47.425Z,99.90
2018-08-10T21:39:19.444Z,99.90
2018-08-10T21:41:48.661Z,99.90
2018-08-10T21:44:17.258Z,99.90
2018-08-10T21:46:46.058Z,99.90
2018-08-10T21:49:14.872Z,99.90
2018-08-10T21:51:43.840Z,99.90
2018-08-10T21:54:12.678Z,99.90
2018-08-10T21:56:41.465Z,99.90
2018-08-10T21:59:10.483Z,99.90
2018-08-10T22:01:39.522Z,99.90
2018-08-10T22:04:08.420Z,99.90
2018-08-10T22:06:37.300Z,99.90
2018-08-10T22:09:07.944Z,99.90
2018-08-10T22:11:36.568Z,99.90
2018-08-10T22:14:10.899Z,99.90
2018-08-10T22:16:44.896Z,99.90
2018-08-10T22:19:15.032Z,99.90
2018-08-10T22:21:45.060Z,99.90
2018-08-10T22:24:14.524Z,99.90
2018-08-10T22:26:43.650Z,99.90
2018-08-10T22:29:12.518Z,99.90
2018-08-10T22:31:41.230Z,99.90
2018-08-10T22:34:10.321Z,99.90
2018-08-10T22:36:39.184Z,99.90
2018-08-10T22:39:08.998Z,99.90
2018-08-10T22:41:37.956Z,99.90
2018-08-10T22:44:06.518Z,99.90
2018-08-10T22:46:35.283Z,99.90
2018-08-10T22:49:03.815Z,99.90
2018-08-10T22:51:32.357Z,99.90
2018-08-10T22:54:01.231Z,99.90
2018-08-10T22:56:30.183Z,99.90
2018-08-10T22:58:58.767Z,99.90
2018-08-10T23:01:27.461Z,99.90
2018-08-10T23:03:56.102Z,99.90
2018-08-10T23:06:24.761Z,99.90
2018-08-10T23:08:53.522Z,99.90
2018-08-10T23:11:22.225Z,99.90
2018-08-10T23:13:50.888Z,99.90
2018-08-10T23:16:19.732Z,99.90
2018-08-10T23:18:48.519Z,99.90
2018-08-10T23:21:17.253Z,99.90
2018-08-10T23:23:45.888Z,99.90
2018-08-10T23:26:14.606Z,99.90
2018-08-10T23:28:43.322Z,99.90
2018-08-10T23:31:11.901Z,99.90
2018-08-10T23:33:40.597Z,99.90
2018-08-10T23:36:09.184Z,99.90
2018-08-10T23:38:37.661Z,99.90
2018-08-10T23:41:06.269Z,99.90
2018-08-10T23:43:34.815Z,99.90
2018-08-10T23:46:03.377Z,99.90
2018-08-10T23:48:31.971Z,99.90
2018-08-10T23:51:00.526Z,99.90
2018-08-10T23:53:29.101Z,99.90
2018-08-10T23:55:57.986Z,99.90
2018-08-10T23:58:26.663Z,99.90
